Time,TemperatureF,DewpointF,PressureIn,WindDirection,WindDirectionDegrees,WindSpeedMPH,WindSpeedGustMPH,Humidity,HourlyPrecipIn,Conditions,Clouds,dailyrainin,SolarRadiationWatts/m^2,SoftwareType,DateUTC
2013-03-15 00:02:00,36.0,33.0,-100.00,East,94,4.0,6.0,87,0.00,,,0.01,0.000000,,2013-03-15 05:02:00,
2013-03-15 00:12:00,36.0,33.0,-100.00,East,94,4.0,6.0,87,0.00,,,0.01,0.000000,,2013-03-15 05:12:00,
2013-03-15 00:22:00,36.0,33.0,-100.00,East,94,4.0,6.0,87,0.00,,,0.01,0.000000,,2013-03-15 05:22:00,
2013-03-15 00:52:00,35.0,32.0,-100.00,ENE,78,4.0,6.0,90,0.00,,,0.01,0.000000,,2013-03-15 05:52:00,
2013-03-15 01:02:00,35.0,32.0,-100.00,ENE,78,4.0,6.0,90,0.00,,,0.01,0.000000,,2013-03-15 06:02:00,
2013-03-15 01:12:00,35.0,32.0,-100.00,ENE,78,4.0,6.0,90,0.00,,,0.01,0.000000,,2013-03-15 06:12:00,
2013-03-15 01:22:00,35.0,32.0,-100.00,ENE,78,4.0,6.0,90,0.00,,,0.01,0.000000,,2013-03-15 06:22:00,
2013-03-15 01:53:00,36.0,29.0,-100.00,East,93,3.0,6.0,76,0.00,,,0.01,0.000000,,2013-03-15 06:53:00,
2013-03-15 02:02:00,36.0,29.0,-100.00,East,93,3.0,6.0,76,0.00,,,0.01,0.000000,,2013-03-15 07:02:00,
2013-03-15 02:12:00,36.0,29.0,-100.00,East,93,3.0,6.0,76,0.00,,,0.01,0.000000,,2013-03-15 07:12:00,
2013-03-15 02:22:00,36.0,29.0,-100.00,East,93,3.0,6.0,76,0.00,,,0.01,0.000000,,2013-03-15 07:22:00,
2013-03-15 02:52:00,42.0,25.0,-100.00,SSE,166,4.0,7.0,50,0.00,,,0.01,0.000000,,2013-03-15 07:52:00,
2013-03-15 03:02:00,42.0,25.0,-100.00,SSE,166,4.0,7.0,50,0.00,,,0.01,0.000000,,2013-03-15 08:02:00,
2013-03-15 03:12:00,42.0,25.0,-100.00,SSE,166,4.0,7.0,50,0.00,,,0.01,0.000000,,2013-03-15 08:12:00,
2013-03-15 03:22:00,42.0,25.0,-100.00,SSE,166,4.0,7.0,50,0.00,,,0.01,0.000000,,2013-03-15 08:22:00,
2013-03-15 03:52:00,45.0,27.0,-100.00,SSW,193,3.0,8.0,50,0.00,,,0.01,0.000000,,2013-03-15 08:52:00,
2013-03-15 04:02:00,45.0,27.0,-100.00,SSW,193,3.0,8.0,50,0.00,,,0.01,0.000000,,2013-03-15 09:02:00,
2013-03-15 04:12:00,45.0,27.0,-100.00,SSW,193,3.0,8.0,50,0.00,,,0.01,0.000000,,2013-03-15 09:12:00,
2013-03-15 04:22:00,45.0,27.0,-100.00,SSW,193,3.0,8.0,50,0.00,,,0.01,0.000000,,2013-03-15 09:22:00,
2013-03-15 04:53:00,45.0,28.0,-100.00,SW,216,5.0,13.0,52,0.00,,,0.01,0.000000,,2013-03-15 09:53:00,
2013-03-15 05:03:00,45.0,28.0,-100.00,SW,216,5.0,13.0,52,0.00,,,0.01,0.000000,,2013-03-15 10:03:00,
2013-03-15 05:12:00,45.0,28.0,-100.00,SW,216,5.0,13.0,52,0.00,,,0.01,0.000000,,2013-03-15 10:12:00,
2013-03-15 05:23:00,45.0,28.0,-100.00,SW,216,5.0,13.0,52,0.00,,,0.01,0.000000,,2013-03-15 10:23:00,
2013-03-15 05:52:00,45.0,30.0,-100.00,SW,217,5.0,11.0,55,0.00,,,0.01,0.000000,,2013-03-15 10:52:00,
2013-03-15 06:03:00,45.0,30.0,-100.00,SW,217,5.0,11.0,55,0.00,,,0.01,0.000000,,2013-03-15 11:03:00,
2013-03-15 06:12:00,45.0,30.0,-100.00,SW,217,5.0,11.0,55,0.00,,,0.01,0.000000,,2013-03-15 11:12:00,
2013-03-15 06:22:00,45.0,30.0,-100.00,SW,217,5.0,11.0,55,0.00,,,0.01,0.000000,,2013-03-15 11:22:00,
2013-03-15 06:52:00,45.0,30.0,-100.00,SW,218,4.0,10.0,56,0.00,,,0.01,0.000000,,2013-03-15 11:52:00,
2013-03-15 07:02:00,45.0,30.0,-100.00,SW,218,4.0,10.0,56,0.00,,,0.01,0.000000,,2013-03-15 12:02:00,
2013-03-15 07:12:00,45.0,30.0,-100.00,SW,218,4.0,10.0,56,0.00,,,0.01,0.000000,,2013-03-15 12:12:00,
2013-03-15 07:23:00,45.0,30.0,-100.00,SW,218,4.0,10.0,56,0.00,,,0.01,0.000000,,2013-03-15 12:23:00,
2013-03-15 07:52:00,46.0,32.0,-100.00,SSW,213,4.0,11.0,58,0.00,,,0.01,7.000000,,2013-03-15 12:52:00,
2013-03-15 08:02:00,46.0,32.0,-100.00,SSW,213,4.0,11.0,58,0.00,,,0.01,7.000000,,2013-03-15 13:02:00,
2013-03-15 08:12:00,46.0,32.0,-100.00,SSW,213,4.0,11.0,58,0.00,,,0.01,7.000000,,2013-03-15 13:12:00,
2013-03-15 08:22:00,46.0,32.0,-100.00,SSW,213,4.0,11.0,58,0.00,,,0.01,7.000000,,2013-03-15 13:22:00,
2013-03-15 08:53:00,50.0,34.0,-100.00,SW,220,4.0,11.0,55,0.00,,,0.01,117.000000,,2013-03-15 13:53:00,
2013-03-15 09:02:00,50.0,34.0,-100.00,SW,220,4.0,11.0,55,0.00,,,0.01,117.000000,,2013-03-15 14:02:00,
2013-03-15 09:12:00,50.0,34.0,-100.00,SW,220,4.0,11.0,55,0.00,,,0.01,117.000000,,2013-03-15 14:12:00,
2013-03-15 09:22:00,50.0,34.0,-100.00,SW,220,4.0,11.0,55,0.00,,,0.01,117.000000,,2013-03-15 14:22:00,
2013-03-15 09:53:00,55.0,37.0,-100.00,SW,226,5.0,13.0,50,0.00,,,0.01,352.000000,,2013-03-15 14:53:00,
2013-03-15 10:02:00,55.0,37.0,-100.00,SW,226,5.0,13.0,50,0.00,,,0.01,352.000000,,2013-03-15 15:02:00,
2013-03-15 10:13:00,55.0,37.0,-100.00,SW,226,5.0,13.0,50,0.00,,,0.01,352.000000,,2013-03-15 15:13:00,
2013-03-15 10:22:00,55.0,37.0,-100.00,SW,226,5.0,13.0,50,0.00,,,0.01,352.000000,,2013-03-15 15:22:00,
2013-03-15 10:53:00,59.0,38.0,-100.00,SW,218,5.0,12.0,45,0.00,,,0.01,509.000000,,2013-03-15 15:53:00,
2013-03-15 11:03:00,59.0,38.0,-100.00,SW,218,5.0,12.0,45,0.00,,,0.01,509.000000,,2013-03-15 16:03:00,
2013-03-15 11:12:00,59.0,38.0,-100.00,SW,218,5.0,12.0,45,0.00,,,0.01,509.000000,,2013-03-15 16:12:00,
2013-03-15 11:22:00,59.0,38.0,-100.00,SW,218,5.0,12.0,45,0.00,,,0.01,509.000000,,2013-03-15 16:22:00,
2013-03-15 11:52:00,63.0,40.0,-100.00,SW,216,7.0,14.0,42,0.00,,,0.01,719.000000,,2013-03-15 16:52:00,
2013-03-15 12:02:00,63.0,40.0,-100.00,SW,216,7.0,14.0,42,0.00,,,0.01,719.000000,,2013-03-15 17:02:00,
2013-03-15 12:12:00,63.0,40.0,-100.00,SW,216,7.0,14.0,42,0.00,,,0.01,719.000000,,2013-03-15 17:12:00,
2013-03-15 12:22:00,63.0,40.0,-100.00,SW,216,7.0,14.0,42,0.00,,,0.01,719.000000,,2013-03-15 17:22:00,
2013-03-15 12:53:00,67.0,41.0,-100.00,SSW,210,6.0,16.0,39,0.00,,,0.01,773.000000,,2013-03-15 17:53:00,
2013-03-15 13:02:00,67.0,41.0,-100.00,SSW,210,6.0,16.0,39,0.00,,,0.01,773.000000,,2013-03-15 18:02:00,
2013-03-15 13:12:00,67.0,41.0,-100.00,SSW,210,6.0,16.0,39,0.00,,,0.01,773.000000,,2013-03-15 18:12:00,
2013-03-15 13:22:00,67.0,41.0,-100.00,SSW,210,6.0,16.0,39,0.00,,,0.01,773.000000,,2013-03-15 18:22:00,
2013-03-15 13:52:00,71.0,43.0,-100.00,SW,234,8.0,15.0,37,0.00,,,0.01,725.000000,,2013-03-15 18:52:00,
2013-03-15 14:02:00,71.0,43.0,-100.00,SW,234,8.0,15.0,37,0.00,,,0.01,725.000000,,2013-03-15 19:02:00,
2013-03-15 14:12:00,71.0,43.0,-100.00,SW,234,8.0,15.0,37,0.00,,,0.01,725.000000,,2013-03-15 19:12:00,
2013-03-15 14:22:00,71.0,43.0,-100.00,SW,234,8.0,15.0,37,0.00,,,0.01,725.000000,,2013-03-15 19:22:00,
2013-03-15 14:52:00,74.0,44.0,-100.00,SW,236,7.0,17.0,34,0.00,,,-99.99,833.000000,,2013-03-15 19:52:00,
2013-03-15 15:02:00,74.0,44.0,-100.00,SW,236,7.0,17.0,34,0.00,,,-99.99,833.000000,,2013-03-15 20:02:00,
2013-03-15 15:12:00,74.0,44.0,-100.00,SW,236,7.0,17.0,34,0.00,,,-99.99,833.000000,,2013-03-15 20:12:00,
2013-03-15 15:22:00,74.0,44.0,-100.00,SW,236,7.0,17.0,34,0.00,,,-99.99,833.000000,,2013-03-15 20:22:00,
2013-03-15 15:52:00,76.0,44.0,-100.00,WSW,238,8.0,17.0,32,0.00,,,0.01,756.000000,,2013-03-15 20:52:00,
2013-03-15 16:02:00,76.0,44.0,-100.00,WSW,238,8.0,17.0,32,0.00,,,0.01,756.000000,,2013-03-15 21:02:00,
2013-03-15 16:12:00,76.0,44.0,-100.00,WSW,238,8.0,17.0,32,0.00,,,0.01,756.000000,,2013-03-15 21:12:00,
2013-03-15 16:22:00,76.0,44.0,-100.00,WSW,238,8.0,17.0,32,0.00,,,0.01,756.000000,,2013-03-15 21:22:00,
2013-03-15 16:53:00,77.0,44.0,-100.00,WSW,242,9.0,19.0,31,0.00,,,0.01,584.000000,,2013-03-15 21:53:00,
2013-03-15 17:03:00,77.0,44.0,-100.00,WSW,242,9.0,19.0,31,0.00,,,0.01,584.000000,,2013-03-15 22:03:00,
2013-03-15 17:13:00,77.0,44.0,-100.00,WSW,242,9.0,19.0,31,0.00,,,0.01,584.000000,,2013-03-15 22:13:00,
2013-03-15 17:22:00,77.0,44.0,-100.00,WSW,242,9.0,19.0,31,0.00,,,0.01,584.000000,,2013-03-15 22:22:00,
2013-03-15 17:53:00,77.0,44.0,-100.00,SW,214,7.0,18.0,31,0.00,,,0.00,405.000000,,2013-03-15 22:53:00,
2013-03-15 18:02:00,77.0,44.0,-100.00,SW,214,7.0,18.0,31,0.00,,,0.00,405.000000,,2013-03-15 23:02:00,
2013-03-15 18:12:00,77.0,44.0,-100.00,SW,214,7.0,18.0,31,0.00,,,0.00,405.000000,,2013-03-15 23:12:00,
2013-03-15 18:22:00,77.0,44.0,-100.00,SW,214,7.0,18.0,31,0.00,,,0.00,405.000000,,2013-03-15 23:22:00,
2013-03-15 18:53:00,73.0,43.0,-100.00,SW,226,7.0,19.0,34,0.00,,,0.00,131.000000,,2013-03-15 23:53:00,
2013-03-15 19:02:00,73.0,43.0,-100.00,SW,226,7.0,19.0,34,0.00,,,0.00,131.000000,,2013-03-16 00:02:00,
2013-03-15 19:12:00,73.0,43.0,-100.00,SW,226,7.0,19.0,34,0.00,,,0.00,131.000000,,2013-03-16 00:12:00,
2013-03-15 19:22:00,73.0,43.0,-100.00,SW,226,7.0,19.0,34,0.00,,,0.00,131.000000,,2013-03-16 00:22:00,
2013-03-15 19:52:00,71.0,44.0,-100.00,SW,217,6.0,13.0,38,0.00,,,0.00,11.000000,,2013-03-16 00:52:00,
2013-03-15 20:02:00,71.0,44.0,-100.00,SW,217,6.0,13.0,38,0.00,,,0.00,11.000000,,2013-03-16 01:02:00,
2013-03-15 20:12:00,71.0,44.0,-100.00,SW,217,6.0,13.0,38,0.00,,,0.00,11.000000,,2013-03-16 01:12:00,
2013-03-15 20:21:00,71.0,44.0,-100.00,SW,217,6.0,13.0,38,0.00,,,0.00,11.000000,,2013-03-16 01:21:00,
2013-03-15 20:53:00,70.0,43.0,-100.00,SW,221,6.0,14.0,37,0.00,,,0.00,0.000000,,2013-03-16 01:53:00,
2013-03-15 21:02:00,70.0,43.0,-100.00,SW,221,6.0,14.0,37,0.00,,,0.00,0.000000,,2013-03-16 02:02:00,
2013-03-15 21:12:00,70.0,43.0,-100.00,SW,221,6.0,14.0,37,0.00,,,0.00,0.000000,,2013-03-16 02:12:00,
2013-03-15 21:23:00,70.0,43.0,-100.00,SW,221,6.0,14.0,37,0.00,,,0.00,0.000000,,2013-03-16 02:23:00,
2013-03-15 21:52:00,69.0,45.0,-100.00,SW,223,7.0,15.0,42,0.00,,,0.00,0.000000,,2013-03-16 02:52:00,
2013-03-15 22:02:00,69.0,45.0,-100.00,SW,223,7.0,15.0,42,0.00,,,0.00,0.000000,,2013-03-16 03:02:00,
2013-03-15 22:12:00,69.0,45.0,-100.00,SW,223,7.0,15.0,42,0.00,,,0.00,0.000000,,2013-03-16 03:12:00,
2013-03-15 22:22:00,69.0,45.0,-100.00,SW,223,7.0,15.0,42,0.00,,,0.00,0.000000,,2013-03-16 03:22:00,
2013-03-15 22:53:00,68.0,46.0,-100.00,SW,219,7.0,20.0,46,0.00,,,0.00,0.000000,,2013-03-16 03:53:00,
2013-03-15 23:02:00,68.0,46.0,-100.00,SW,219,7.0,20.0,46,0.00,,,0.00,0.000000,,2013-03-16 04:02:00,
2013-03-15 23:13:00,68.0,46.0,-100.00,SW,219,7.0,20.0,46,0.00,,,0.00,0.000000,,2013-03-16 04:13:00,
2013-03-15 23:23:00,68.0,46.0,-100.00,SW,219,7.0,20.0,46,0.00,,,0.00,0.000000,,2013-03-16 04:23:00,
2013-03-15 23:53:00,68.0,48.0,-100.00,SW,221,10.0,17.0,48,0.00,,,0.00,0.000000,,2013-03-16 04:53:00,